Time;durP1;ratioP1;P1;durP2;ratioP2;P2;SDS_P1;SDS_P2;PMS_P1;PMS_P2;Temp;Humidity;BMP_temperature;BMP_pressure;BME280_temperature;BME280_humidity;BME280_pressure;Samples;Min_cycle;Max_cycle;Signal;HPM_P1;HPM_P2
2021/12/14 00:02:42;;;;;;;65.03;21.40;;;;;;;-2.07;100.00;101900.44;10461148;28;20227;-65
2021/12/14 00:07:47;;;;;;;60.80;19.60;;;;;;;-2.15;100.00;101905.78;10460944;28;20247;-63
2021/12/14 00:12:58;;;;;;;63.07;20.60;;;;;;;-2.12;100.00;101909.41;10461005;28;20230;-65
2021/12/14 00:18:04;;;;;;;60.27;18.97;;;;;;;-2.20;100.00;101912.25;10460907;28;20676;-65
2021/12/14 00:28:35;;;;;;;52.90;16.37;;;;;;;-2.19;100.00;101912.34;10459899;28;20662;-68
2021/12/14 00:33:40;;;;;;;46.20;17.93;;;;;;;-2.33;100.00;101911.44;10460251;28;20553;-64
2021/12/14 00:38:46;;;;;;;52.20;19.83;;;;;;;-2.21;100.00;101920.66;10459879;28;20212;-65
2021/12/14 00:43:50;;;;;;;50.67;20.20;;;;;;;-2.12;100.00;101928.91;10459659;28;20224;-69
2021/12/14 00:48:54;;;;;;;58.03;19.73;;;;;;;-2.05;100.00;101937.00;10459569;28;20239;-65
2021/12/14 00:54:02;;;;;;;61.90;22.00;;;;;;;-2.17;100.00;101923.50;10459424;28;20551;-67
2021/12/14 00:59:08;;;;;;;58.67;19.87;;;;;;;-2.00;100.00;101927.16;10459777;28;20243;-67
2021/12/14 01:04:16;;;;;;;54.80;18.93;;;;;;;-2.06;100.00;101932.72;10459272;28;20224;-67
2021/12/14 01:09:25;;;;;;;55.23;19.20;;;;;;;-2.24;100.00;101921.34;10459346;28;20221;-68
2021/12/14 01:14:46;;;;;;;48.90;17.57;;;;;;;-2.34;100.00;101916.44;10459599;28;20217;-66
2021/12/14 01:19:54;;;;;;;52.00;17.87;;;;;;;-2.26;100.00;101916.94;10459091;28;20220;-69
2021/12/14 01:25:07;;;;;;;59.13;20.17;;;;;;;-2.12;100.00;101917.06;10458963;28;20228;-67
2021/12/14 01:30:20;;;;;;;56.83;20.53;;;;;;;-2.03;100.00;101919.31;10459128;28;20217;-66
2021/12/14 01:35:28;;;;;;;71.57;22.60;;;;;;;-1.93;100.00;101908.97;10459656;28;20224;-65
2021/12/14 01:40:53;;;;;;;55.27;20.80;;;;;;;-2.01;100.00;101899.94;10466647;28;20227;-66
2021/12/14 01:45:59;;;;;;;54.10;19.20;;;;;;;-2.17;100.00;101904.84;10466580;28;20244;-66
2021/12/14 01:51:06;;;;;;;49.17;19.23;;;;;;;-2.32;100.00;101907.25;10466447;28;20221;-66
2021/12/14 01:56:13;;;;;;;52.00;19.17;;;;;;;-2.28;100.00;101898.16;10466035;28;20663;-66
2021/12/14 02:01:20;;;;;;;43.67;18.93;;;;;;;-2.26;100.00;101886.44;10466110;28;20216;-66
2021/12/14 02:06:28;;;;;;;55.57;19.73;;;;;;;-2.18;100.00;101880.19;10465651;28;20554;-66
2021/12/14 02:11:34;;;;;;;55.40;20.70;;;;;;;-2.29;100.00;101886.22;10464168;28;20554;-66
2021/12/14 02:16:38;;;;;;;48.50;19.13;;;;;;;-2.33;100.00;101891.91;10461115;28;20554;-68
2021/12/14 02:21:44;;;;;;;50.37;19.90;;;;;;;-2.26;100.00;101886.44;10461977;28;20234;-66
2021/12/14 02:26:49;;;;;;;54.40;18.63;;;;;;;-2.17;100.00;101887.06;10461399;28;20281;-65
2021/12/14 02:31:55;;;;;;;53.30;18.50;;;;;;;-2.23;100.00;101891.72;10461381;28;20223;-66
2021/12/14 02:36:59;;;;;;;55.03;20.40;;;;;;;-2.36;100.00;101885.84;10461338;28;20231;-65
2021/12/14 02:42:04;;;;;;;52.57;17.93;;;;;;;-2.38;100.00;101887.38;10461417;28;20223;-68
2021/12/14 02:47:11;;;;;;;46.83;18.20;;;;;;;-2.35;100.00;101884.19;10459524;28;20243;-68
2021/12/14 02:52:24;;;;;;;45.10;17.00;;;;;;;-2.53;100.00;101876.22;10137783;28;9999972;-66
2021/12/14 02:57:30;;;;;;;50.87;17.17;;;;;;;-2.53;100.00;101881.31;10502199;28;20219;-68
2021/12/14 03:02:34;;;;;;;41.57;16.00;;;;;;;-2.69;100.00;101883.59;10501669;28;20711;-65
2021/12/14 03:07:44;;;;;;;44.00;16.03;;;;;;;-2.48;100.00;101869.78;10500898;28;20296;-66
2021/12/14 03:12:51;;;;;;;42.33;16.67;;;;;;;-2.52;100.00;101882.19;10501289;28;20216;-64
2021/12/14 03:17:59;;;;;;;39.20;15.80;;;;;;;-2.69;100.00;101887.78;10501016;28;20299;-67
2021/12/14 03:23:06;;;;;;;37.90;14.03;;;;;;;-2.70;100.00;101892.00;10501012;28;20230;-66
2021/12/14 03:28:12;;;;;;;39.70;15.33;;;;;;;-2.73;100.00;101886.75;10500128;28;20559;-67
2021/12/14 03:33:19;;;;;;;43.30;16.17;;;;;;;-2.64;100.00;101869.53;10500375;28;20220;-67
2021/12/14 03:38:28;;;;;;;36.80;15.47;;;;;;;-2.72;100.00;101873.25;10501120;28;20223;-66
2021/12/14 03:43:31;;;;;;;47.50;17.33;;;;;;;-2.78;100.00;101869.44;10503168;28;20546;-69
2021/12/14 03:48:35;;;;;;;34.97;13.80;;;;;;;-2.75;100.00;101872.16;10502431;28;20692;-69
2021/12/14 03:53:40;;;;;;;36.60;14.37;;;;;;;-2.73;100.00;101874.03;10502661;28;20298;-64
2021/12/14 03:58:44;;;;;;;41.17;14.13;;;;;;;-2.83;100.00;101868.25;10502579;28;20226;-67
2021/12/14 04:03:50;;;;;;;41.13;15.87;;;;;;;-2.95;100.00;101867.41;10502402;28;20257;-66
2021/12/14 04:08:56;;;;;;;42.07;15.63;;;;;;;-2.96;100.00;101856.38;10501544;28;20232;-67
2021/12/14 04:13:59;;;;;;;41.40;15.30;;;;;;;-2.97;100.00;101862.19;10502131;28;20220;-65
2021/12/14 04:19:05;;;;;;;43.50;16.80;;;;;;;-2.98;100.00;101863.00;10502095;28;20224;-66
2021/12/14 04:24:14;;;;;;;33.33;15.13;;;;;;;-2.99;100.00;101868.88;10501543;28;20227;-67
2021/12/14 04:29:19;;;;;;;34.53;14.93;;;;;;;-2.99;100.00;101863.78;10501080;28;20224;-65
2021/12/14 04:34:22;;;;;;;36.33;13.47;;;;;;;-2.99;100.00;101870.50;10501567;28;20238;-67
2021/12/14 04:39:38;;;;;;;30.13;13.63;;;;;;;-3.08;100.00;101842.84;10501179;28;20220;-65
2021/12/14 04:55:27;;;;;;;31.43;13.07;;;;;;;-3.28;100.00;101850.78;10500672;28;20216;-65
2021/12/14 05:00:32;;;;;;;41.60;17.43;;;;;;;-3.29;100.00;101865.88;10500639;28;20220;-65
2021/12/14 05:05:47;;;;;;;34.27;13.53;;;;;;;-3.23;100.00;101868.84;10500073;28;20227;-66
2021/12/14 05:10:58;;;;;;;31.47;13.63;;;;;;;-3.30;100.00;101865.00;10499371;28;20216;-64
2021/12/14 05:16:03;;;;;;;37.80;16.80;;;;;;;-3.27;100.00;101852.53;10500295;28;20230;-63
2021/12/14 05:21:07;;;;;;;30.57;14.00;;;;;;;-3.30;100.00;101852.31;10500434;28;20208;-61
2021/12/14 05:26:16;;;;;;;38.43;15.13;;;;;;;-3.29;100.00;101855.72;10500232;28;20219;-66
2021/12/14 05:31:19;;;;;;;34.90;14.90;;;;;;;-3.23;100.00;101854.50;10500170;28;20226;-65
2021/12/14 05:36:24;;;;;;;40.50;16.77;;;;;;;-3.27;100.00;101850.00;10499656;28;20257;-63
2021/12/14 05:46:57;;;;;;;35.87;15.73;;;;;;;-3.34;100.00;101837.66;10499303;28;20246;-67
2021/12/14 05:52:06;;;;;;;33.37;15.50;;;;;;;-3.32;100.00;101842.81;10499256;28;20220;-67
2021/12/14 05:57:17;;;;;;;41.07;14.13;;;;;;;-3.29;100.00;101851.53;10499333;28;20224;-65
2021/12/14 06:02:23;;;;;;;40.17;15.57;;;;;;;-3.14;100.00;101844.94;10499772;28;20222;-66
2021/12/14 06:07:27;;;;;;;37.10;14.57;;;;;;;-3.24;100.00;101837.50;10498018;28;20242;-66
2021/12/14 06:12:35;;;;;;;36.87;15.67;;;;;;;-3.21;100.00;101837.69;10495842;28;20670;-66
2021/12/14 06:17:40;;;;;;;32.50;13.87;;;;;;;-3.25;100.00;101834.84;10135755;28;9999787;-66
2021/12/14 06:22:45;;;;;;;25.57;11.60;;;;;;;-3.24;100.00;101827.34;10455473;28;20220;-67
2021/12/14 06:27:50;;;;;;;29.90;12.10;;;;;;;-3.36;100.00;101823.09;10461089;28;20217;-69
2021/12/14 06:32:57;;;;;;;29.40;12.73;;;;;;;-3.35;100.00;101823.22;10461646;28;20217;-69
2021/12/14 06:43:31;;;;;;;28.93;13.40;;;;;;;-3.46;100.00;101815.63;10458510;28;20233;-68
2021/12/14 06:48:39;;;;;;;39.73;14.13;;;;;;;-3.49;100.00;101823.94;10460618;28;20236;-67
2021/12/14 06:53:48;;;;;;;34.80;15.43;;;;;;;-3.41;100.00;101812.63;10460325;28;20221;-67
2021/12/14 06:58:56;;;;;;;35.50;12.73;;;;;;;-3.34;100.00;101812.28;10460327;28;20228;-70
2021/12/14 07:04:04;;;;;;;36.43;15.73;;;;;;;-3.37;100.00;101808.66;10455815;28;20208;-68
2021/12/14 07:09:10;;;;;;;32.10;14.13;;;;;;;-3.41;100.00;101811.75;10440787;28;20677;-66
2021/12/14 07:14:29;;;;;;;47.37;17.83;;;;;;;-3.46;100.00;101815.63;10458828;28;20222;-68
2021/12/14 07:19:42;;;;;;;40.23;15.97;;;;;;;-3.36;100.00;101818.00;10485685;28;20228;-66
2021/12/14 07:24:45;;;;;;;36.90;15.50;;;;;;;-3.23;100.00;101824.06;10484683;28;20638;-66
2021/12/14 07:29:51;;;;;;;35.90;16.50;;;;;;;-3.35;100.00;101796.94;10417645;28;20225;-66
2021/12/14 07:34:54;;;;;;;38.80;15.90;;;;;;;-3.35;100.00;101794.41;10417148;28;20227;-65
2021/12/14 07:39:58;;;;;;;38.10;16.77;;;;;;;-3.21;100.00;101811.47;10417640;28;20671;-65
2021/12/14 07:45:03;;;;;;;38.87;17.00;;;;;;;-3.08;100.00;101812.38;10416874;28;20245;-67
2021/12/14 07:50:07;;;;;;;37.27;16.23;;;;;;;-3.10;100.00;101808.84;10416481;28;20240;-67
2021/12/14 07:55:14;;;;;;;36.30;16.33;;;;;;;-3.15;100.00;101807.66;10417309;28;20225;-67
2021/12/14 08:00:22;;;;;;;44.17;16.77;;;;;;;-3.07;100.00;101814.13;10416849;28;20665;-65
2021/12/14 08:05:30;;;;;;;48.90;18.30;;;;;;;-3.04;100.00;101816.00;10416492;28;20276;-67
2021/12/14 08:10:38;;;;;;;41.83;17.87;;;;;;;-2.88;100.00;101812.03;10416566;28;20239;-66
2021/12/14 08:15:49;;;;;;;42.27;18.03;;;;;;;-2.76;100.00;101819.63;10419236;28;20305;-65
2021/12/14 08:20:57;;;;;;;51.03;20.00;;;;;;;-2.70;100.00;101823.44;10419490;28;20593;-66
2021/12/14 08:26:09;;;;;;;42.10;18.07;;;;;;;-2.69;100.00;101822.63;10419143;28;20229;-67
2021/12/14 08:31:14;;;;;;;48.30;20.33;;;;;;;-2.49;100.00;101817.22;10418527;28;20292;-65
2021/12/14 08:36:17;;;;;;;44.23;19.37;;;;;;;-2.37;100.00;101819.66;10418701;28;20227;-65
2021/12/14 08:41:24;;;;;;;57.57;20.40;;;;;;;-2.36;100.00;101819.75;10418730;28;20221;-66
2021/12/14 08:46:31;;;;;;;47.37;19.83;;;;;;;-2.23;100.00;101805.28;10417407;28;20240;-67
2021/12/14 08:51:40;;;;;;;43.70;19.47;;;;;;;-2.21;100.00;101809.69;10421523;28;20216;-65
2021/12/14 08:56:58;;;;;;;50.67;19.07;;;;;;;-2.17;100.00;101806.53;10446988;28;20217;-65
2021/12/14 09:02:05;;;;;;;45.87;18.83;;;;;;;-2.13;100.00;101805.97;10417630;28;20616;-68
2021/12/14 09:07:13;;;;;;;42.90;19.23;;;;;;;-2.15;100.00;101804.97;10430993;28;20286;-64
2021/12/14 09:12:25;;;;;;;43.10;18.10;;;;;;;-2.13;100.00;101797.44;10458420;28;20223;-66
2021/12/14 09:17:30;;;;;;;39.73;16.47;;;;;;;-2.16;100.00;101792.19;10458012;28;20220;-65
2021/12/14 09:22:38;;;;;;;47.90;18.20;;;;;;;-2.17;100.00;101785.34;10458385;28;20216;-66
2021/12/14 09:27:43;;;;;;;47.87;19.40;;;;;;;-2.18;100.00;101781.91;10456049;28;20225;-67
2021/12/14 09:32:48;;;;;;;52.50;20.43;;;;;;;-2.11;100.00;101770.47;10456607;28;20217;-66
2021/12/14 09:37:54;;;;;;;48.37;19.27;;;;;;;-1.98;100.00;101757.72;10439753;28;20564;-67
2021/12/14 09:42:58;;;;;;;50.13;19.73;;;;;;;-1.96;100.00;101753.59;10453647;28;20531;-68
2021/12/14 09:48:04;;;;;;;46.47;18.70;;;;;;;-1.99;100.00;101748.34;10440185;28;20324;-65
2021/12/14 09:53:12;;;;;;;42.53;18.67;;;;;;;-1.89;100.00;101756.63;10416252;28;20292;-66
2021/12/14 09:58:20;;;;;;;56.40;21.40;;;;;;;-1.85;100.00;101739.91;10419784;28;20699;-66
2021/12/14 10:03:25;;;;;;;54.63;20.37;;;;;;;-1.85;100.00;101744.97;10424159;28;20660;-65
2021/12/14 10:08:34;;;;;;;49.20;21.90;;;;;;;-1.77;100.00;101744.66;10423322;28;20229;-64
2021/12/14 10:13:41;;;;;;;48.97;19.63;;;;;;;-1.60;100.00;101749.09;10423850;28;20663;-66
2021/12/14 10:18:52;;;;;;;51.63;20.67;;;;;;;-1.67;100.00;101746.09;10423758;28;20228;-66
2021/12/14 10:23:57;;;;;;;52.43;21.93;;;;;;;-1.61;100.00;101736.28;10423519;28;20241;-65
2021/12/14 10:29:04;;;;;;;50.70;20.93;;;;;;;-1.55;100.00;101732.44;10422330;28;20300;-64
2021/12/14 10:34:14;;;;;;;61.17;23.70;;;;;;;-1.56;100.00;101729.81;10423160;28;20213;-65
2021/12/14 10:39:35;;;;;;;57.93;22.40;;;;;;;-1.41;100.00;101730.72;10422627;28;20225;-64
2021/12/14 10:44:45;;;;;;;53.70;23.47;;;;;;;-1.42;100.00;101727.31;10422591;28;20237;-68
2021/12/14 10:49:51;;;;;;;58.17;23.57;;;;;;;-1.47;100.00;101720.19;10428044;28;20221;-64
2021/12/14 10:54:58;;;;;;;62.53;23.57;;;;;;;-1.50;100.00;101725.09;10463550;28;20228;-67
2021/12/14 11:00:08;;;;;;;67.80;27.10;;;;;;;-1.48;100.00;101719.28;10439536;28;20217;-67
2021/12/14 11:05:18;;;;;;;59.07;23.13;;;;;;;-1.42;100.00;101714.59;10421944;28;20221;-66
2021/12/14 11:10:24;;;;;;;61.10;24.20;;;;;;;-1.41;100.00;101701.06;10418888;28;20312;-68
2021/12/14 11:15:32;;;;;;;77.80;26.80;;;;;;;-1.43;100.00;101701.72;10418737;28;20296;-65
2021/12/14 11:20:40;;;;;;;65.93;26.40;;;;;;;-1.39;100.00;101690.97;10418708;28;20226;-68
2021/12/14 11:25:55;;;;;;;67.63;27.10;;;;;;;-1.43;100.00;101692.44;10418275;28;20227;-67
2021/12/14 11:31:06;;;;;;;73.27;29.67;;;;;;;-1.35;100.00;101690.34;10415627;28;20684;-65
2021/12/14 11:36:14;;;;;;;66.17;26.77;;;;;;;-1.42;100.00;101689.13;10417676;28;20275;-65
2021/12/14 11:41:29;;;;;;;73.80;28.83;;;;;;;-1.30;100.00;101688.94;10445616;28;20225;-68
2021/12/14 11:46:35;;;;;;;70.40;27.97;;;;;;;-1.21;100.00;101684.41;10458371;28;20237;-67
2021/12/14 11:51:42;;;;;;;79.83;30.73;;;;;;;-1.29;100.00;101690.69;10458300;28;20299;-68
2021/12/14 11:56:46;;;;;;;78.70;27.77;;;;;;;-1.14;100.00;101699.25;10457684;28;20230;-66
2021/12/14 12:01:53;;;;;;;76.57;29.93;;;;;;;-1.17;100.00;101687.19;10455927;28;20217;-68
2021/12/14 12:12:41;;;;;;;83.60;33.53;;;;;;;-1.07;100.00;101677.56;10141820;28;10000671;-64
2021/12/14 12:17:49;;;;;;;78.73;31.20;;;;;;;-1.05;100.00;101675.97;10497185;28;20564;-65
2021/12/14 12:22:56;;;;;;;83.13;30.77;;;;;;;-1.02;100.00;101666.84;10459388;28;20220;-68
2021/12/14 12:28:03;;;;;;;88.97;35.07;;;;;;;-0.94;100.00;101665.59;10456068;28;20235;-68
2021/12/14 12:33:26;;;;;;;86.47;32.40;;;;;;;-0.88;100.00;101671.00;10417253;28;20709;-67
2021/12/14 12:38:43;;;;;;;93.47;34.57;;;;;;;-0.94;100.00;101663.03;10414068;28;20660;-69
2021/12/14 12:43:51;;;;;;;87.67;34.90;;;;;;;-0.92;100.00;101664.00;10413903;28;20223;-67
2021/12/14 12:49:00;;;;;;;91.60;35.70;;;;;;;-0.98;100.00;101667.88;10426240;28;20236;-66
2021/12/14 12:54:15;;;;;;;90.73;35.00;;;;;;;-0.98;100.00;101668.75;10451912;28;20224;-65
2021/12/14 12:59:37;;;;;;;104.30;38.43;;;;;;;-1.09;100.00;101659.63;10454472;28;20213;-64
2021/12/14 13:04:42;;;;;;;90.77;35.20;;;;;;;-0.94;100.00;101654.50;10417374;28;20217;-65
2021/12/14 13:10:16;;;;;;;92.53;35.20;;;;;;;-0.97;100.00;101650.16;10422102;28;20271;-68
2021/12/14 13:15:55;;;;;;;94.17;33.37;;;;;;;-0.89;100.00;101653.97;10458445;28;20218;-66
2021/12/14 13:21:03;;;;;;;100.63;35.83;;;;;;;-0.86;100.00;101643.97;10458376;28;20229;-66
2021/12/14 13:26:28;;;;;;;95.87;35.63;;;;;;;-0.83;100.00;101644.16;10458042;28;20221;-69
2021/12/14 13:31:35;;;;;;;86.80;34.33;;;;;;;-0.75;100.00;101645.44;10458183;28;20230;-67
2021/12/14 13:36:41;;;;;;;92.13;33.93;;;;;;;-0.76;100.00;101656.41;10466240;28;20227;-69
2021/12/14 13:42:15;;;;;;;92.90;34.70;;;;;;;-0.70;100.00;101646.56;10466055;28;20599;-67
2021/12/14 13:47:25;;;;;;;94.30;35.57;;;;;;;-0.76;100.00;101636.03;10465757;28;20232;-66
2021/12/14 13:52:28;;;;;;;92.43;34.13;;;;;;;-0.67;100.00;101653.50;10464960;28;20228;-68
2021/12/14 13:57:41;;;;;;;80.53;32.70;;;;;;;-0.72;100.00;101653.25;10465929;28;20205;-68
2021/12/14 14:02:46;;;;;;;90.97;34.13;;;;;;;-0.72;100.00;101654.91;10465071;28;20200;-70
2021/12/14 14:07:59;;;;;;;80.33;32.37;;;;;;;-0.75;100.00;101665.84;10464812;28;20567;-67
2021/12/14 14:13:09;;;;;;;79.90;30.10;;;;;;;-0.71;100.00;101655.03;10464771;28;20197;-66
2021/12/14 14:18:14;;;;;;;83.57;32.77;;;;;;;-0.70;100.00;101655.88;10465123;28;20235;-66
2021/12/14 14:23:23;;;;;;;89.10;33.47;;;;;;;-0.73;100.00;101653.16;10464336;28;20658;-66
2021/12/14 14:28:36;;;;;;;86.67;32.53;;;;;;;-0.75;100.00;101650.53;10463869;28;20677;-67
2021/12/14 14:33:45;;;;;;;90.93;33.50;;;;;;;-0.73;100.00;101643.88;10436822;28;20529;-65
2021/12/14 14:38:51;;;;;;;90.17;33.07;;;;;;;-0.68;100.00;101656.84;10423101;28;20221;-69
2021/12/14 14:43:58;;;;;;;85.97;32.90;;;;;;;-0.62;100.00;101650.41;10443708;28;20234;-66
2021/12/14 14:49:02;;;;;;;83.03;31.17;;;;;;;-0.56;100.00;101657.53;10463320;28;20243;-67
2021/12/14 14:54:41;;;;;;;86.17;32.57;;;;;;;-0.60;100.00;101671.78;10435795;28;20213;-67
2021/12/14 15:00:12;;;;;;;92.97;35.27;;;;;;;-0.56;100.00;101667.72;10422166;28;20218;-65
2021/12/14 15:05:20;;;;;;;87.07;31.67;;;;;;;-0.61;100.00;101651.28;10424132;28;20193;-67
2021/12/14 15:10:29;;;;;;;86.63;33.07;;;;;;;-0.57;100.00;101654.09;10462952;28;20213;-66
2021/12/14 15:15:34;;;;;;;79.33;34.40;;;;;;;-0.55;100.00;101659.28;10462090;28;20199;-66
2021/12/14 15:20:37;;;;;;;81.70;31.93;;;;;;;-0.55;100.00;101651.66;10461548;28;20204;-68
2021/12/14 15:25:41;;;;;;;85.67;32.60;;;;;;;-0.51;100.00;101656.09;10461907;28;20518;-66
2021/12/14 15:30:54;;;;;;;89.97;33.63;;;;;;;-0.47;100.00;101646.16;10461757;28;20216;-67
2021/12/14 15:36:17;;;;;;;76.23;31.73;;;;;;;-0.45;100.00;101661.53;10462128;28;20638;-66
2021/12/14 15:41:28;;;;;;;83.97;31.80;;;;;;;-0.39;100.00;101660.19;10461925;28;20214;-66
2021/12/14 15:46:36;;;;;;;85.60;31.30;;;;;;;-0.34;100.00;101650.25;10461509;28;20312;-67
2021/12/14 15:51:42;;;;;;;80.70;32.30;;;;;;;-0.31;100.00;101656.38;10461372;28;20224;-74
2021/12/14 15:56:49;;;;;;;91.53;32.17;;;;;;;-0.31;100.00;101653.81;10460936;28;20203;-65
2021/12/14 16:01:58;;;;;;;80.13;30.70;;;;;;;-0.33;100.00;101641.81;10460576;28;20200;-64
2021/12/14 16:07:03;;;;;;;74.50;31.77;;;;;;;-0.35;100.00;101640.84;10460281;28;20623;-66
2021/12/14 16:15:06;;;;;;;82.70;32.33;;;;;;;-0.32;100.00;101626.59;10459063;28;20549;-66
2021/12/14 16:17:47;;;;;;;86.53;34.53;;;;;;;-0.28;100.00;101625.97;10419061;28;20197;-65
2021/12/14 16:22:52;;;;;;;82.23;34.80;;;;;;;-0.27;100.00;101624.28;10428711;28;20205;-67
2021/12/14 16:27:59;;;;;;;108.10;45.97;;;;;;;-0.26;100.00;101620.94;10457117;28;20538;-68
2021/12/14 16:33:11;;;;;;;83.70;33.37;;;;;;;-0.24;100.00;101619.31;10451864;28;20227;-65
2021/12/14 16:38:16;;;;;;;91.37;35.80;;;;;;;-0.24;100.00;101617.66;10441913;28;20189;-67
2021/12/14 16:43:25;;;;;;;92.63;36.37;;;;;;;-0.24;100.00;101622.75;10445567;28;20197;-66
2021/12/14 16:48:32;;;;;;;86.87;34.33;;;;;;;-0.17;100.00;101631.59;10459584;28;20224;-68
2021/12/14 16:53:44;;;;;;;85.03;34.27;;;;;;;-0.11;100.00;101637.94;10459506;28;20268;-65
2021/12/14 16:58:57;;;;;;;95.30;36.07;;;;;;;-0.02;100.00;101643.50;10459229;28;20191;-66
2021/12/14 17:04:04;;;;;;;86.80;34.03;;;;;;;-0.02;100.00;101638.38;10459380;28;20192;-66
2021/12/14 17:09:11;;;;;;;75.17;31.27;;;;;;;0.04;100.00;101642.94;10458603;28;20733;-66
2021/12/14 17:14:24;;;;;;;82.17;33.13;;;;;;;0.08;100.00;101643.97;10455419;28;20268;-67
2021/12/14 17:19:29;;;;;;;81.30;32.63;;;;;;;0.10;100.00;101632.19;10450698;28;20217;-67
2021/12/14 17:24:36;;;;;;;86.43;35.40;;;;;;;0.09;100.00;101633.84;10447839;28;20189;-65
2021/12/14 17:29:43;;;;;;;82.73;31.40;;;;;;;0.16;100.00;101642.69;10417391;28;20260;-72
2021/12/14 17:34:50;;;;;;;77.80;33.33;;;;;;;0.20;100.00;101639.50;10417214;28;20217;-64
2021/12/14 17:39:57;;;;;;;84.27;34.77;;;;;;;0.20;100.00;101639.50;10417048;28;20239;-65
2021/12/14 17:45:06;;;;;;;76.73;31.33;;;;;;;0.22;100.00;101636.25;10416817;28;20251;-66
2021/12/14 17:50:15;;;;;;;79.27;32.00;;;;;;;0.25;100.00;101649.16;10417238;28;20228;-66
2021/12/14 17:55:30;;;;;;;76.37;32.93;;;;;;;0.30;100.00;101651.94;10416886;28;20304;-67
2021/12/14 18:00:37;;;;;;;88.17;34.90;;;;;;;0.32;100.00;101645.25;10416607;28;20225;-65
2021/12/14 18:05:45;;;;;;;76.90;32.50;;;;;;;0.32;100.00;101647.78;10416485;28;20217;-65
2021/12/14 18:10:52;;;;;;;85.47;34.00;;;;;;;0.32;100.00;101635.03;10416442;28;20235;-66
2021/12/14 18:16:04;;;;;;;93.10;34.87;;;;;;;0.38;100.00;101632.81;10416484;28;20228;-66
2021/12/14 18:21:11;;;;;;;79.33;34.37;;;;;;;0.39;100.00;101626.88;10422867;28;20232;-71
2021/12/14 18:26:18;;;;;;;85.00;35.00;;;;;;;0.39;100.00;101627.78;10424124;28;20223;-66
2021/12/14 18:31:23;;;;;;;83.40;32.80;;;;;;;0.43;100.00;101628.81;10423553;28;20240;-68
2021/12/14 18:36:33;;;;;;;88.50;35.77;;;;;;;0.45;100.00;101633.19;10423829;28;20662;-69
2021/12/14 18:41:37;;;;;;;91.67;36.47;;;;;;;0.49;100.00;101635.09;10423353;28;20696;-68
2021/12/14 18:47:04;;;;;;;84.63;33.67;;;;;;;0.54;100.00;101628.53;10422726;28;20248;-69
2021/12/14 18:52:13;;;;;;;79.27;33.13;;;;;;;0.58;100.00;101635.56;10422746;28;20600;-69
2021/12/14 18:57:18;;;;;;;91.73;34.30;;;;;;;0.64;100.00;101638.41;10422997;28;20213;-68
2021/12/14 19:02:26;;;;;;;86.67;34.83;;;;;;;0.64;100.00;101640.09;10422415;28;20232;-67
2021/12/14 19:07:40;;;;;;;77.87;35.13;;;;;;;0.67;100.00;101646.25;10421953;28;20573;-72
2021/12/14 19:30:14;;;;;;;89.17;38.33;;;;;;;0.86;100.00;101655.69;10533254;27;20550;-67
2021/12/14 19:35:20;;;;;;;95.00;37.23;;;;;;;0.97;100.00;101662.19;10536417;28;20302;-66
2021/12/14 19:40:27;;;;;;;104.37;38.10;;;;;;;0.99;100.00;101666.59;10535662;28;20216;-68
2021/12/14 19:45:34;;;;;;;95.40;41.70;;;;;;;1.02;100.00;101660.72;10180348;27;9999898;-65
2021/12/14 19:50:38;;;;;;;107.07;44.07;;;;;;;0.94;100.00;101656.94;10532681;28;20215;-68
2021/12/14 19:55:42;;;;;;;101.80;37.73;;;;;;;0.99;100.00;101666.59;10532071;28;20220;-66
2021/12/14 20:00:49;;;;;;;110.00;41.77;;;;;;;1.04;100.00;101659.13;10531768;28;20212;-69
2021/12/14 20:06:00;;;;;;;114.03;39.97;;;;;;;1.12;100.00;101668.06;10531976;28;20297;-69
2021/12/14 20:11:10;;;;;;;106.63;39.47;;;;;;;1.13;100.00;101677.47;10531299;28;20690;-69
2021/12/14 20:16:19;;;;;;;101.13;37.57;;;;;;;1.19;100.00;101688.88;10532393;28;20751;-69
2021/12/14 20:21:25;;;;;;;104.37;39.13;;;;;;;1.28;100.00;101688.44;10533835;28;20222;-71
2021/12/14 20:26:32;;;;;;;97.87;38.90;;;;;;;1.30;100.00;101676.59;10531610;28;20314;-70
2021/12/14 20:31:40;;;;;;;109.73;40.60;;;;;;;1.33;100.00;101673.31;10505858;28;20295;-66
2021/12/14 20:36:57;;;;;;;101.90;37.97;;;;;;;1.34;100.00;101658.06;10505643;28;20222;-68
2021/12/14 20:42:13;;;;;;;115.53;40.87;;;;;;;1.34;100.00;101652.06;10505613;28;20671;-67
2021/12/14 20:47:18;;;;;;;115.87;41.07;;;;;;;1.31;100.00;101665.59;10505495;28;20305;-67
2021/12/14 20:52:25;;;;;;;123.73;43.53;;;;;;;1.34;100.00;101664.84;10505110;28;20299;-67
2021/12/14 20:57:43;;;;;;;102.77;38.40;;;;;;;1.37;100.00;101660.75;10504893;28;20224;-67
2021/12/14 21:02:51;;;;;;;103.13;40.03;;;;;;;1.46;100.00;101656.06;10504776;28;20519;-67
2021/12/14 21:08:08;;;;;;;103.43;37.70;;;;;;;1.49;100.00;101638.31;10504332;28;20228;-68
2021/12/14 21:13:25;;;;;;;109.43;39.40;;;;;;;1.55;100.00;101640.28;10504341;28;20219;-68
2021/12/14 21:18:32;;;;;;;103.57;37.33;;;;;;;1.56;100.00;101652.25;10504287;28;20220;-65
2021/12/14 21:23:36;;;;;;;106.40;36.97;;;;;;;1.59;100.00;101653.28;10504017;28;20223;-67
2021/12/14 21:28:40;;;;;;;102.93;36.03;;;;;;;1.65;100.00;101648.44;10503476;28;20288;-66
2021/12/14 21:33:48;;;;;;;105.73;38.73;;;;;;;1.67;100.00;101643.41;10503577;28;20231;-65
2021/12/14 21:38:54;;;;;;;97.93;38.10;;;;;;;1.71;100.00;101640.19;10502561;28;20223;-66
2021/12/14 21:44:06;;;;;;;96.57;35.53;;;;;;;1.77;100.00;101651.56;10503196;28;20664;-67
2021/12/14 21:49:15;;;;;;;92.87;34.93;;;;;;;1.79;100.00;101656.75;10502822;28;20228;-69
2021/12/14 21:54:18;;;;;;;97.13;36.67;;;;;;;1.84;100.00;101658.72;10502790;28;20212;-69
2021/12/14 21:59:22;;;;;;;92.60;34.47;;;;;;;1.87;100.00;101653.72;10502652;28;20227;-69
2021/12/14 22:04:26;;;;;;;88.73;34.50;;;;;;;1.89;100.00;101636.75;10502558;28;20230;-70
2021/12/14 22:09:30;;;;;;;102.17;35.77;;;;;;;1.94;100.00;101644.63;10501964;28;20220;-66
2021/12/14 22:14:35;;;;;;;87.37;34.23;;;;;;;1.96;100.00;101645.59;10502051;28;20236;-67
2021/12/14 22:19:43;;;;;;;88.03;34.57;;;;;;;2.00;100.00;101652.59;10501601;28;20559;-69
2021/12/14 22:24:48;;;;;;;84.77;36.47;;;;;;;2.03;100.00;101648.50;10501457;28;20228;-67
2021/12/14 22:29:52;;;;;;;89.27;35.47;;;;;;;2.03;100.00;101645.06;10501241;28;20228;-68
2021/12/14 22:34:56;;;;;;;92.63;34.80;;;;;;;2.03;100.00;101637.38;10501019;28;20242;-69
2021/12/14 22:40:02;;;;;;;84.27;34.70;;;;;;;2.06;100.00;101640.06;10500973;28;20242;-68
2021/12/14 22:45:06;;;;;;;95.47;36.37;;;;;;;2.04;100.00;101657.91;10500833;28;20291;-68
2021/12/14 22:50:12;;;;;;;88.00;36.23;;;;;;;2.04;100.00;101657.91;10500510;28;20224;-66
2021/12/14 22:55:19;;;;;;;84.37;34.73;;;;;;;2.10;100.00;101657.31;10500534;28;20212;-67
2021/12/14 23:00:31;;;;;;;82.33;36.17;;;;;;;2.10;100.00;101645.41;10147072;27;9999766;-68
2021/12/14 23:05:37;;;;;;;82.83;34.60;;;;;;;2.04;100.00;101645.13;10497369;28;20218;-70
2021/12/14 23:10:43;;;;;;;86.67;36.90;;;;;;;2.09;100.00;101638.50;10497329;28;20232;-69
2021/12/14 23:15:50;;;;;;;86.30;35.47;;;;;;;2.10;100.00;101647.97;10497121;28;20216;-66
2021/12/14 23:20:57;;;;;;;88.90;34.43;;;;;;;2.11;100.00;101642.03;10497156;28;20299;-65
2021/12/14 23:26:00;;;;;;;91.40;37.80;;;;;;;2.15;100.00;101643.91;10496857;28;20227;-67
2021/12/14 23:31:06;;;;;;;92.37;35.03;;;;;;;2.19;100.00;101639.81;10496823;28;20283;-67
2021/12/14 23:36:13;;;;;;;86.63;36.03;;;;;;;2.18;100.00;101646.63;10496985;28;20582;-66
2021/12/14 23:41:19;;;;;;;84.73;36.80;;;;;;;2.20;100.00;101654.34;10496621;28;20616;-66